sensor_id;sensor_type;location;lat;lon;timestamp;P1;durP1;ratioP1;P2;durP2;ratioP2
56541;SDS011;42438;53.174;6.730;2023-05-21T00:02:22;6.25;;;3.60;;
56541;SDS011;42438;53.174;6.730;2023-05-21T00:04:53;7.78;;;4.18;;
56541;SDS011;42438;53.174;6.730;2023-05-21T00:07:23;6.35;;;4.07;;
56541;SDS011;42438;53.174;6.730;2023-05-21T00:09:54;8.02;;;4.15;;
56541;SDS011;42438;53.174;6.730;2023-05-21T00:12:25;8.85;;;3.90;;
56541;SDS011;42438;53.174;6.730;2023-05-21T00:14:55;6.60;;;3.88;;
56541;SDS011;42438;53.174;6.730;2023-05-21T00:17:26;6.78;;;3.75;;
56541;SDS011;42438;53.174;6.730;2023-05-21T00:19:57;7.22;;;3.85;;
56541;SDS011;42438;53.174;6.730;2023-05-21T00:22:29;7.15;;;4.25;;
56541;SDS011;42438;53.174;6.730;2023-05-21T00:24:59;6.22;;;3.78;;
56541;SDS011;42438;53.174;6.730;2023-05-21T00:27:30;5.05;;;4.20;;
56541;SDS011;42438;53.174;6.730;2023-05-21T00:30:01;7.45;;;4.50;;
56541;SDS011;42438;53.174;6.730;2023-05-21T00:32:33;5.43;;;3.97;;
56541;SDS011;42438;53.174;6.730;2023-05-21T00:35:03;6.22;;;4.15;;
56541;SDS011;42438;53.174;6.730;2023-05-21T00:37:35;8.32;;;4.15;;
56541;SDS011;42438;53.174;6.730;2023-05-21T00:40:06;6.72;;;4.20;;
56541;SDS011;42438;53.174;6.730;2023-05-21T00:42:38;6.13;;;3.80;;
56541;SDS011;42438;53.174;6.730;2023-05-21T00:45:09;7.35;;;4.32;;
56541;SDS011;42438;53.174;6.730;2023-05-21T00:47:40;7.25;;;4.20;;
56541;SDS011;42438;53.174;6.730;2023-05-21T00:50:12;5.75;;;3.85;;
56541;SDS011;42438;53.174;6.730;2023-05-21T00:52:44;7.25;;;3.92;;
56541;SDS011;42438;53.174;6.730;2023-05-21T00:55:14;5.57;;;3.70;;
56541;SDS011;42438;53.174;6.730;2023-05-21T00:57:45;7.05;;;3.83;;
56541;SDS011;42438;53.174;6.730;2023-05-21T01:00:16;7.40;;;4.10;;
56541;SDS011;42438;53.174;6.730;2023-05-21T01:02:47;8.05;;;4.32;;
56541;SDS011;42438;53.174;6.730;2023-05-21T01:05:18;8.38;;;4.45;;
56541;SDS011;42438;53.174;6.730;2023-05-21T01:07:51;6.90;;;4.20;;
56541;SDS011;42438;53.174;6.730;2023-05-21T01:10:22;7.63;;;3.75;;
56541;SDS011;42438;53.174;6.730;2023-05-21T01:12:54;7.28;;;4.07;;
56541;SDS011;42438;53.174;6.730;2023-05-21T01:17:57;5.93;;;3.58;;
56541;SDS011;42438;53.174;6.730;2023-05-21T01:20:28;6.90;;;4.30;;
56541;SDS011;42438;53.174;6.730;2023-05-21T01:23:01;9.47;;;5.03;;
56541;SDS011;42438;53.174;6.730;2023-05-21T01:25:32;8.60;;;4.57;;
56541;SDS011;42438;53.174;6.730;2023-05-21T01:28:03;7.45;;;4.13;;
56541;SDS011;42438;53.174;6.730;2023-05-21T01:30:34;9.95;;;4.30;;
56541;SDS011;42438;53.174;6.730;2023-05-21T01:33:09;8.10;;;4.05;;
56541;SDS011;42438;53.174;6.730;2023-05-21T01:38:42;8.07;;;4.68;;
56541;SDS011;42438;53.174;6.730;2023-05-21T01:41:25;8.00;;;4.03;;
56541;SDS011;42438;53.174;6.730;2023-05-21T01:43:58;10.80;;;4.78;;
56541;SDS011;42438;53.174;6.730;2023-05-21T01:46:31;8.48;;;4.93;;
56541;SDS011;42438;53.174;6.730;2023-05-21T01:49:04;7.57;;;4.38;;
56541;SDS011;42438;53.174;6.730;2023-05-21T01:51:35;10.40;;;4.72;;
56541;SDS011;42438;53.174;6.730;2023-05-21T01:54:06;7.13;;;4.20;;
56541;SDS011;42438;53.174;6.730;2023-05-21T01:56:36;8.30;;;5.32;;
56541;SDS011;42438;53.174;6.730;2023-05-21T01:59:07;8.02;;;4.70;;
56541;SDS011;42438;53.174;6.730;2023-05-21T02:01:38;7.22;;;4.93;;
56541;SDS011;42438;53.174;6.730;2023-05-21T02:04:08;9.43;;;4.88;;
56541;SDS011;42438;53.174;6.730;2023-05-21T02:06:39;8.10;;;4.93;;
56541;SDS011;42438;53.174;6.730;2023-05-21T02:09:10;7.32;;;4.47;;
56541;SDS011;42438;53.174;6.730;2023-05-21T02:11:41;10.25;;;5.07;;
56541;SDS011;42438;53.174;6.730;2023-05-21T02:14:12;8.77;;;4.78;;
56541;SDS011;42438;53.174;6.730;2023-05-21T02:16:43;7.38;;;4.55;;
56541;SDS011;42438;53.174;6.730;2023-05-21T02:19:13;6.80;;;4.35;;
56541;SDS011;42438;53.174;6.730;2023-05-21T02:21:44;8.18;;;5.13;;
56541;SDS011;42438;53.174;6.730;2023-05-21T02:24:15;8.10;;;5.10;;
56541;SDS011;42438;53.174;6.730;2023-05-21T02:26:45;8.85;;;5.10;;
56541;SDS011;42438;53.174;6.730;2023-05-21T02:29:18;8.63;;;4.60;;
56541;SDS011;42438;53.174;6.730;2023-05-21T02:31:49;9.63;;;5.22;;
56541;SDS011;42438;53.174;6.730;2023-05-21T02:34:20;11.95;;;5.30;;
56541;SDS011;42438;53.174;6.730;2023-05-21T02:36:51;11.82;;;5.00;;
56541;SDS011;42438;53.174;6.730;2023-05-21T02:39:21;9.60;;;4.95;;
56541;SDS011;42438;53.174;6.730;2023-05-21T02:41:52;9.20;;;4.75;;
56541;SDS011;42438;53.174;6.730;2023-05-21T02:44:22;9.23;;;5.45;;
56541;SDS011;42438;53.174;6.730;2023-05-21T02:46:53;8.60;;;4.72;;
56541;SDS011;42438;53.174;6.730;2023-05-21T02:49:24;9.98;;;4.95;;
56541;SDS011;42438;53.174;6.730;2023-05-21T02:51:54;10.23;;;5.30;;
56541;SDS011;42438;53.174;6.730;2023-05-21T02:54:25;8.45;;;5.03;;
56541;SDS011;42438;53.174;6.730;2023-05-21T02:56:56;8.40;;;5.05;;
56541;SDS011;42438;53.174;6.730;2023-05-21T02:59:26;9.55;;;5.35;;
56541;SDS011;42438;53.174;6.730;2023-05-21T03:01:57;8.43;;;5.10;;
56541;SDS011;42438;53.174;6.730;2023-05-21T03:04:28;11.40;;;5.63;;
56541;SDS011;42438;53.174;6.730;2023-05-21T03:06:58;10.32;;;4.97;;
56541;SDS011;42438;53.174;6.730;2023-05-21T03:09:31;10.32;;;4.90;;
56541;SDS011;42438;53.174;6.730;2023-05-21T03:12:01;8.98;;;5.25;;
56541;SDS011;42438;53.174;6.730;2023-05-21T03:14:32;11.95;;;5.13;;
56541;SDS011;42438;53.174;6.730;2023-05-21T03:17:03;12.55;;;5.50;;
56541;SDS011;42438;53.174;6.730;2023-05-21T03:19:34;11.07;;;5.72;;
56541;SDS011;42438;53.174;6.730;2023-05-21T03:22:05;8.25;;;5.18;;
56541;SDS011;42438;53.174;6.730;2023-05-21T03:24:36;8.77;;;4.88;;
56541;SDS011;42438;53.174;6.730;2023-05-21T03:27:07;8.60;;;5.13;;
56541;SDS011;42438;53.174;6.730;2023-05-21T03:29:38;9.20;;;5.25;;
56541;SDS011;42438;53.174;6.730;2023-05-21T03:32:09;9.75;;;5.63;;
56541;SDS011;42438;53.174;6.730;2023-05-21T03:34:40;8.40;;;5.38;;
56541;SDS011;42438;53.174;6.730;2023-05-21T03:37:10;9.88;;;5.28;;
56541;SDS011;42438;53.174;6.730;2023-05-21T03:39:41;11.25;;;6.18;;
56541;SDS011;42438;53.174;6.730;2023-05-21T03:42:12;10.18;;;5.43;;
56541;SDS011;42438;53.174;6.730;2023-05-21T03:44:43;11.50;;;5.15;;
56541;SDS011;42438;53.174;6.730;2023-05-21T03:47:13;8.40;;;4.72;;
56541;SDS011;42438;53.174;6.730;2023-05-21T03:49:44;11.40;;;5.40;;
56541;SDS011;42438;53.174;6.730;2023-05-21T03:52:15;8.18;;;4.72;;
56541;SDS011;42438;53.174;6.730;2023-05-21T03:54:45;11.73;;;5.07;;
56541;SDS011;42438;53.174;6.730;2023-05-21T03:57:16;8.50;;;4.68;;
56541;SDS011;42438;53.174;6.730;2023-05-21T03:59:47;10.27;;;4.85;;
56541;SDS011;42438;53.174;6.730;2023-05-21T04:02:17;10.02;;;5.10;;
56541;SDS011;42438;53.174;6.730;2023-05-21T04:04:48;10.80;;;5.05;;
56541;SDS011;42438;53.174;6.730;2023-05-21T04:07:20;11.60;;;5.10;;
56541;SDS011;42438;53.174;6.730;2023-05-21T04:09:51;8.13;;;4.72;;
56541;SDS011;42438;53.174;6.730;2023-05-21T04:12:22;9.30;;;4.28;;
56541;SDS011;42438;53.174;6.730;2023-05-21T04:14:53;7.43;;;4.55;;
56541;SDS011;42438;53.174;6.730;2023-05-21T04:17:23;9.13;;;4.97;;
56541;SDS011;42438;53.174;6.730;2023-05-21T04:19:55;9.75;;;4.80;;
56541;SDS011;42438;53.174;6.730;2023-05-21T04:22:26;7.75;;;4.18;;
56541;SDS011;42438;53.174;6.730;2023-05-21T04:24:57;10.77;;;4.90;;
56541;SDS011;42438;53.174;6.730;2023-05-21T04:27:28;7.70;;;4.15;;
56541;SDS011;42438;53.174;6.730;2023-05-21T04:29:59;8.68;;;4.57;;
56541;SDS011;42438;53.174;6.730;2023-05-21T04:32:30;8.32;;;4.30;;
56541;SDS011;42438;53.174;6.730;2023-05-21T04:35:02;10.20;;;4.27;;
56541;SDS011;42438;53.174;6.730;2023-05-21T04:37:33;10.82;;;4.10;;
56541;SDS011;42438;53.174;6.730;2023-05-21T04:40:04;8.95;;;4.80;;
56541;SDS011;42438;53.174;6.730;2023-05-21T04:42:35;7.13;;;4.07;;
56541;SDS011;42438;53.174;6.730;2023-05-21T04:45:06;9.85;;;4.60;;
56541;SDS011;42438;53.174;6.730;2023-05-21T04:47:37;9.65;;;4.35;;
56541;SDS011;42438;53.174;6.730;2023-05-21T04:50:08;7.45;;;4.18;;
56541;SDS011;42438;53.174;6.730;2023-05-21T04:52:41;7.70;;;4.30;;
56541;SDS011;42438;53.174;6.730;2023-05-21T04:55:14;8.88;;;4.45;;
56541;SDS011;42438;53.174;6.730;2023-05-21T04:57:48;8.98;;;4.20;;
56541;SDS011;42438;53.174;6.730;2023-05-21T05:00:18;8.60;;;4.10;;
56541;SDS011;42438;53.174;6.730;2023-05-21T05:02:49;8.85;;;4.40;;
56541;SDS011;42438;53.174;6.730;2023-05-21T05:05:20;9.93;;;4.50;;
56541;SDS011;42438;53.174;6.730;2023-05-21T05:07:50;8.00;;;4.22;;
56541;SDS011;42438;53.174;6.730;2023-05-21T05:10:21;8.38;;;3.88;;
56541;SDS011;42438;53.174;6.730;2023-05-21T05:12:52;8.77;;;4.60;;
56541;SDS011;42438;53.174;6.730;2023-05-21T05:15:22;6.55;;;4.05;;
56541;SDS011;42438;53.174;6.730;2023-05-21T05:17:53;8.02;;;4.18;;
56541;SDS011;42438;53.174;6.730;2023-05-21T05:20:25;10.15;;;4.72;;
56541;SDS011;42438;53.174;6.730;2023-05-21T05:22:56;6.95;;;4.00;;
56541;SDS011;42438;53.174;6.730;2023-05-21T05:25:26;8.77;;;4.70;;
56541;SDS011;42438;53.174;6.730;2023-05-21T05:27:57;7.40;;;4.18;;
56541;SDS011;42438;53.174;6.730;2023-05-21T05:30:27;8.52;;;4.55;;
56541;SDS011;42438;53.174;6.730;2023-05-21T05:32:58;8.77;;;4.22;;
56541;SDS011;42438;53.174;6.730;2023-05-21T05:35:29;7.00;;;3.72;;
56541;SDS011;42438;53.174;6.730;2023-05-21T05:37:59;8.90;;;4.22;;
56541;SDS011;42438;53.174;6.730;2023-05-21T05:40:30;9.00;;;4.00;;
56541;SDS011;42438;53.174;6.730;2023-05-21T05:43:01;5.88;;;3.70;;
56541;SDS011;42438;53.174;6.730;2023-05-21T05:45:31;6.25;;;4.15;;
56541;SDS011;42438;53.174;6.730;2023-05-21T05:48:02;11.60;;;4.75;;
56541;SDS011;42438;53.174;6.730;2023-05-21T05:50:33;7.30;;;3.83;;
56541;SDS011;42438;53.174;6.730;2023-05-21T05:53:03;8.77;;;3.80;;
56541;SDS011;42438;53.174;6.730;2023-05-21T05:55:34;7.68;;;4.10;;
56541;SDS011;42438;53.174;6.730;2023-05-21T05:58:05;7.30;;;3.72;;
56541;SDS011;42438;53.174;6.730;2023-05-21T06:00:36;9.75;;;4.07;;
56541;SDS011;42438;53.174;6.730;2023-05-21T06:03:07;7.65;;;3.42;;
56541;SDS011;42438;53.174;6.730;2023-05-21T06:05:37;6.72;;;3.28;;
56541;SDS011;42438;53.174;6.730;2023-05-21T06:08:08;8.02;;;3.65;;
56541;SDS011;42438;53.174;6.730;2023-05-21T06:10:39;5.63;;;3.42;;
56541;SDS011;42438;53.174;6.730;2023-05-21T06:13:09;6.93;;;3.63;;
56541;SDS011;42438;53.174;6.730;2023-05-21T06:15:40;7.50;;;4.05;;
56541;SDS011;42438;53.174;6.730;2023-05-21T06:18:12;6.18;;;3.22;;
56541;SDS011;42438;53.174;6.730;2023-05-21T06:20:42;10.27;;;3.95;;
56541;SDS011;42438;53.174;6.730;2023-05-21T06:23:13;6.43;;;3.60;;
56541;SDS011;42438;53.174;6.730;2023-05-21T06:25:44;6.90;;;3.63;;
56541;SDS011;42438;53.174;6.730;2023-05-21T06:28:14;8.20;;;3.80;;
56541;SDS011;42438;53.174;6.730;2023-05-21T06:30:46;8.13;;;3.90;;
56541;SDS011;42438;53.174;6.730;2023-05-21T06:33:17;7.38;;;3.65;;
56541;SDS011;42438;53.174;6.730;2023-05-21T06:35:47;6.85;;;3.65;;
56541;SDS011;42438;53.174;6.730;2023-05-21T06:38:18;5.97;;;3.67;;
56541;SDS011;42438;53.174;6.730;2023-05-21T06:40:49;8.80;;;3.80;;
56541;SDS011;42438;53.174;6.730;2023-05-21T06:43:19;6.70;;;3.30;;
56541;SDS011;42438;53.174;6.730;2023-05-21T06:45:50;9.35;;;4.25;;
56541;SDS011;42438;53.174;6.730;2023-05-21T06:48:21;7.18;;;3.78;;
56541;SDS011;42438;53.174;6.730;2023-05-21T06:50:51;8.98;;;3.92;;
56541;SDS011;42438;53.174;6.730;2023-05-21T06:53:22;6.45;;;3.45;;
56541;SDS011;42438;53.174;6.730;2023-05-21T06:55:53;8.77;;;3.90;;
56541;SDS011;42438;53.174;6.730;2023-05-21T06:58:23;7.00;;;3.70;;
56541;SDS011;42438;53.174;6.730;2023-05-21T07:00:54;5.75;;;3.42;;
56541;SDS011;42438;53.174;6.730;2023-05-21T07:03:26;7.18;;;3.33;;
56541;SDS011;42438;53.174;6.730;2023-05-21T07:05:57;7.03;;;3.28;;
56541;SDS011;42438;53.174;6.730;2023-05-21T07:08:27;5.35;;;3.08;;
56541;SDS011;42438;53.174;6.730;2023-05-21T07:10:58;7.30;;;3.70;;
56541;SDS011;42438;53.174;6.730;2023-05-21T07:13:29;7.50;;;3.88;;
56541;SDS011;42438;53.174;6.730;2023-05-21T07:16:00;9.18;;;4.00;;
56541;SDS011;42438;53.174;6.730;2023-05-21T07:18:30;7.55;;;4.07;;
56541;SDS011;42438;53.174;6.730;2023-05-21T07:21:01;6.70;;;4.00;;
56541;SDS011;42438;53.174;6.730;2023-05-21T07:23:32;8.25;;;4.15;;
56541;SDS011;42438;53.174;6.730;2023-05-21T07:26:02;7.03;;;3.80;;
56541;SDS011;42438;53.174;6.730;2023-05-21T07:28:33;7.32;;;4.00;;
56541;SDS011;42438;53.174;6.730;2023-05-21T07:31:04;8.75;;;4.28;;
56541;SDS011;42438;53.174;6.730;2023-05-21T07:33:34;9.65;;;3.92;;
56541;SDS011;42438;53.174;6.730;2023-05-21T07:36:05;8.23;;;4.15;;
56541;SDS011;42438;53.174;6.730;2023-05-21T07:38:36;7.85;;;4.13;;
56541;SDS011;42438;53.174;6.730;2023-05-21T07:41:07;11.02;;;4.22;;
56541;SDS011;42438;53.174;6.730;2023-05-21T07:43:38;8.27;;;4.25;;
56541;SDS011;42438;53.174;6.730;2023-05-21T07:46:09;7.10;;;3.78;;
56541;SDS011;42438;53.174;6.730;2023-05-21T07:48:40;8.32;;;4.00;;
56541;SDS011;42438;53.174;6.730;2023-05-21T07:51:13;10.73;;;4.18;;
56541;SDS011;42438;53.174;6.730;2023-05-21T07:53:43;8.63;;;4.20;;
56541;SDS011;42438;53.174;6.730;2023-05-21T07:56:14;7.75;;;4.00;;
56541;SDS011;42438;53.174;6.730;2023-05-21T07:58:45;8.35;;;4.65;;
56541;SDS011;42438;53.174;6.730;2023-05-21T08:01:16;8.23;;;3.85;;
56541;SDS011;42438;53.174;6.730;2023-05-21T08:03:47;7.38;;;3.60;;
56541;SDS011;42438;53.174;6.730;2023-05-21T08:06:17;6.65;;;3.78;;
56541;SDS011;42438;53.174;6.730;2023-05-21T08:08:48;6.88;;;3.78;;
56541;SDS011;42438;53.174;6.730;2023-05-21T08:11:19;8.45;;;4.05;;
56541;SDS011;42438;53.174;6.730;2023-05-21T08:13:51;8.07;;;3.55;;
56541;SDS011;42438;53.174;6.730;2023-05-21T08:16:21;7.65;;;3.90;;
56541;SDS011;42438;53.174;6.730;2023-05-21T08:18:52;7.03;;;3.55;;
56541;SDS011;42438;53.174;6.730;2023-05-21T08:21:23;7.53;;;3.50;;
56541;SDS011;42438;53.174;6.730;2023-05-21T08:23:54;7.93;;;4.05;;
56541;SDS011;42438;53.174;6.730;2023-05-21T08:26:24;12.07;;;3.80;;
56541;SDS011;42438;53.174;6.730;2023-05-21T08:28:55;6.95;;;3.70;;
56541;SDS011;42438;53.174;6.730;2023-05-21T08:31:26;8.40;;;4.45;;
56541;SDS011;42438;53.174;6.730;2023-05-21T08:33:57;8.65;;;4.13;;
56541;SDS011;42438;53.174;6.730;2023-05-21T08:36:27;7.90;;;3.90;;
56541;SDS011;42438;53.174;6.730;2023-05-21T08:38:58;7.18;;;4.20;;
56541;SDS011;42438;53.174;6.730;2023-05-21T08:41:29;11.88;;;4.85;;
56541;SDS011;42438;53.174;6.730;2023-05-21T08:44:04;8.75;;;3.83;;
56541;SDS011;42438;53.174;6.730;2023-05-21T08:46:40;9.57;;;4.32;;
56541;SDS011;42438;53.174;6.730;2023-05-21T08:49:18;7.45;;;3.90;;
56541;SDS011;42438;53.174;6.730;2023-05-21T08:51:55;8.70;;;4.15;;
56541;SDS011;42438;53.174;6.730;2023-05-21T08:54:27;7.88;;;4.40;;
56541;SDS011;42438;53.174;6.730;2023-05-21T08:56:58;11.27;;;4.35;;
56541;SDS011;42438;53.174;6.730;2023-05-21T08:59:30;7.80;;;4.15;;
56541;SDS011;42438;53.174;6.730;2023-05-21T09:02:02;10.05;;;4.30;;
56541;SDS011;42438;53.174;6.730;2023-05-21T09:04:34;11.07;;;4.25;;
56541;SDS011;42438;53.174;6.730;2023-05-21T09:07:06;10.77;;;4.60;;
56541;SDS011;42438;53.174;6.730;2023-05-21T09:10:13;8.77;;;4.93;;
56541;SDS011;42438;53.174;6.730;2023-05-21T09:12:40;6.43;;;4.20;;
56541;SDS011;42438;53.174;6.730;2023-05-21T09:15:11;7.68;;;3.83;;
56541;SDS011;42438;53.174;6.730;2023-05-21T09:17:44;8.52;;;4.45;;
56541;SDS011;42438;53.174;6.730;2023-05-21T09:20:16;7.35;;;4.38;;
56541;SDS011;42438;53.174;6.730;2023-05-21T09:22:53;9.65;;;4.50;;
56541;SDS011;42438;53.174;6.730;2023-05-21T09:25:25;9.25;;;4.43;;
56541;SDS011;42438;53.174;6.730;2023-05-21T09:27:58;11.23;;;4.55;;
56541;SDS011;42438;53.174;6.730;2023-05-21T09:30:29;7.60;;;4.03;;
56541;SDS011;42438;53.174;6.730;2023-05-21T09:33:00;6.75;;;4.13;;
56541;SDS011;42438;53.174;6.730;2023-05-21T09:35:32;9.30;;;4.90;;
56541;SDS011;42438;53.174;6.730;2023-05-21T09:38:07;8.93;;;4.43;;
56541;SDS011;42438;53.174;6.730;2023-05-21T09:40:38;8.50;;;4.05;;
56541;SDS011;42438;53.174;6.730;2023-05-21T09:43:14;8.18;;;4.45;;
56541;SDS011;42438;53.174;6.730;2023-05-21T09:45:52;9.63;;;4.57;;
56541;SDS011;42438;53.174;6.730;2023-05-21T09:48:33;9.23;;;4.15;;
56541;SDS011;42438;53.174;6.730;2023-05-21T09:51:06;8.70;;;4.28;;
56541;SDS011;42438;53.174;6.730;2023-05-21T09:56:21;8.02;;;3.90;;
56541;SDS011;42438;53.174;6.730;2023-05-21T09:58:55;8.40;;;3.88;;
56541;SDS011;42438;53.174;6.730;2023-05-21T10:01:31;8.63;;;4.07;;
56541;SDS011;42438;53.174;6.730;2023-05-21T10:04:06;6.63;;;3.97;;
56541;SDS011;42438;53.174;6.730;2023-05-21T10:06:41;6.53;;;3.70;;
56541;SDS011;42438;53.174;6.730;2023-05-21T10:09:13;7.97;;;3.65;;
56541;SDS011;42438;53.174;6.730;2023-05-21T10:11:47;8.20;;;4.30;;
56541;SDS011;42438;53.174;6.730;2023-05-21T10:14:22;7.03;;;3.78;;
56541;SDS011;42438;53.174;6.730;2023-05-21T10:16:56;7.70;;;4.18;;
56541;SDS011;42438;53.174;6.730;2023-05-21T10:19:30;8.98;;;4.28;;
56541;SDS011;42438;53.174;6.730;2023-05-21T10:22:02;8.25;;;4.13;;
56541;SDS011;42438;53.174;6.730;2023-05-21T10:24:34;7.03;;;3.90;;
56541;SDS011;42438;53.174;6.730;2023-05-21T10:27:05;8.63;;;4.03;;
56541;SDS011;42438;53.174;6.730;2023-05-21T10:29:36;8.75;;;4.00;;
56541;SDS011;42438;53.174;6.730;2023-05-21T10:32:09;10.40;;;4.40;;
56541;SDS011;42438;53.174;6.730;2023-05-21T10:34:42;10.35;;;4.47;;
56541;SDS011;42438;53.174;6.730;2023-05-21T10:37:14;8.48;;;4.25;;
56541;SDS011;42438;53.174;6.730;2023-05-21T10:39:45;6.43;;;4.10;;
56541;SDS011;42438;53.174;6.730;2023-05-21T10:56:45;7.75;;;4.15;;
56541;SDS011;42438;53.174;6.730;2023-05-21T10:59:43;8.40;;;4.45;;
56541;SDS011;42438;53.174;6.730;2023-05-21T11:02:16;9.05;;;4.68;;
56541;SDS011;42438;53.174;6.730;2023-05-21T11:10:37;9.20;;;4.60;;
56541;SDS011;42438;53.174;6.730;2023-05-21T11:13:14;7.97;;;5.28;;
56541;SDS011;42438;53.174;6.730;2023-05-21T11:21:11;9.52;;;4.57;;
56541;SDS011;42438;53.174;6.730;2023-05-21T11:23:51;9.00;;;5.60;;
56541;SDS011;42438;53.174;6.730;2023-05-21T11:26:26;9.30;;;5.63;;
56541;SDS011;42438;53.174;6.730;2023-05-21T11:31:35;9.23;;;5.10;;
56541;SDS011;42438;53.174;6.730;2023-05-21T11:36:40;6.15;;;4.60;;
56541;SDS011;42438;53.174;6.730;2023-05-21T11:39:15;8.63;;;4.80;;
56541;SDS011;42438;53.174;6.730;2023-05-21T11:44:41;11.32;;;5.93;;
56541;SDS011;42438;53.174;6.730;2023-05-21T11:47:14;10.35;;;5.60;;
56541;SDS011;42438;53.174;6.730;2023-05-21T11:49:46;10.35;;;6.18;;
56541;SDS011;42438;53.174;6.730;2023-05-21T11:52:18;11.02;;;5.78;;
56541;SDS011;42438;53.174;6.730;2023-05-21T11:54:50;11.50;;;6.72;;
56541;SDS011;42438;53.174;6.730;2023-05-21T11:57:25;10.77;;;6.65;;
56541;SDS011;42438;53.174;6.730;2023-05-21T12:00:00;10.38;;;5.70;;
56541;SDS011;42438;53.174;6.730;2023-05-21T12:02:33;14.95;;;6.65;;
56541;SDS011;42438;53.174;6.730;2023-05-21T12:05:03;9.80;;;6.75;;
56541;SDS011;42438;53.174;6.730;2023-05-21T12:07:35;11.07;;;6.70;;
56541;SDS011;42438;53.174;6.730;2023-05-21T12:10:07;12.80;;;6.70;;
56541;SDS011;42438;53.174;6.730;2023-05-21T12:12:38;12.95;;;6.88;;
56541;SDS011;42438;53.174;6.730;2023-05-21T12:15:09;16.63;;;7.63;;
56541;SDS011;42438;53.174;6.730;2023-05-21T12:17:42;14.50;;;7.15;;
56541;SDS011;42438;53.174;6.730;2023-05-21T12:20:13;11.65;;;6.70;;
56541;SDS011;42438;53.174;6.730;2023-05-21T12:22:47;10.80;;;6.70;;
56541;SDS011;42438;53.174;6.730;2023-05-21T12:25:18;11.02;;;6.82;;
56541;SDS011;42438;53.174;6.730;2023-05-21T12:27:50;11.23;;;6.63;;
56541;SDS011;42438;53.174;6.730;2023-05-21T12:30:26;15.35;;;7.82;;
56541;SDS011;42438;53.174;6.730;2023-05-21T12:32:57;12.18;;;8.50;;
56541;SDS011;42438;53.174;6.730;2023-05-21T12:35:29;14.45;;;9.00;;
56541;SDS011;42438;53.174;6.730;2023-05-21T12:38:00;14.43;;;8.85;;
56541;SDS011;42438;53.174;6.730;2023-05-21T12:40:35;12.73;;;8.07;;
56541;SDS011;42438;53.174;6.730;2023-05-21T12:43:06;13.32;;;7.82;;
56541;SDS011;42438;53.174;6.730;2023-05-21T12:45:37;12.65;;;6.80;;
56541;SDS011;42438;53.174;6.730;2023-05-21T12:48:08;14.25;;;7.32;;
56541;SDS011;42438;53.174;6.730;2023-05-21T12:50:39;15.27;;;7.78;;
56541;SDS011;42438;53.174;6.730;2023-05-21T12:53:10;12.55;;;7.55;;
56541;SDS011;42438;53.174;6.730;2023-05-21T12:55:41;14.10;;;8.02;;
56541;SDS011;42438;53.174;6.730;2023-05-21T12:58:12;14.55;;;7.80;;
56541;SDS011;42438;53.174;6.730;2023-05-21T13:00:43;12.98;;;8.65;;
56541;SDS011;42438;53.174;6.730;2023-05-21T13:03:14;15.55;;;8.57;;
56541;SDS011;42438;53.174;6.730;2023-05-21T13:05:45;16.33;;;9.23;;
56541;SDS011;42438;53.174;6.730;2023-05-21T13:08:16;17.15;;;8.77;;
56541;SDS011;42438;53.174;6.730;2023-05-21T13:10:46;14.88;;;8.82;;
56541;SDS011;42438;53.174;6.730;2023-05-21T13:13:17;12.05;;;7.78;;
56541;SDS011;42438;53.174;6.730;2023-05-21T13:15:48;14.27;;;8.77;;
56541;SDS011;42438;53.174;6.730;2023-05-21T13:18:19;12.80;;;8.73;;
56541;SDS011;42438;53.174;6.730;2023-05-21T13:20:52;15.20;;;9.40;;
56541;SDS011;42438;53.174;6.730;2023-05-21T13:23:23;17.02;;;8.88;;
56541;SDS011;42438;53.174;6.730;2023-05-21T13:25:54;15.73;;;9.13;;
56541;SDS011;42438;53.174;6.730;2023-05-21T13:28:25;17.90;;;9.75;;
56541;SDS011;42438;53.174;6.730;2023-05-21T13:30:55;17.00;;;9.65;;
56541;SDS011;42438;53.174;6.730;2023-05-21T13:33:26;16.02;;;9.73;;
56541;SDS011;42438;53.174;6.730;2023-05-21T13:35:57;15.95;;;9.45;;
56541;SDS011;42438;53.174;6.730;2023-05-21T13:38:27;17.88;;;9.52;;
56541;SDS011;42438;53.174;6.730;2023-05-21T13:40:58;17.50;;;10.15;;
56541;SDS011;42438;53.174;6.730;2023-05-21T13:43:29;17.27;;;9.55;;
56541;SDS011;42438;53.174;6.730;2023-05-21T13:45:59;15.63;;;10.02;;
56541;SDS011;42438;53.174;6.730;2023-05-21T13:48:30;15.38;;;9.75;;
56541;SDS011;42438;53.174;6.730;2023-05-21T13:51:00;16.23;;;10.00;;
56541;SDS011;42438;53.174;6.730;2023-05-21T13:53:31;16.80;;;10.27;;
56541;SDS011;42438;53.174;6.730;2023-05-21T13:56:02;19.35;;;10.68;;
56541;SDS011;42438;53.174;6.730;2023-05-21T13:58:33;19.75;;;10.95;;
56541;SDS011;42438;53.174;6.730;2023-05-21T14:01:04;17.25;;;10.75;;
56541;SDS011;42438;53.174;6.730;2023-05-21T14:03:35;20.15;;;11.50;;
56541;SDS011;42438;53.174;6.730;2023-05-21T14:06:06;15.82;;;10.25;;
56541;SDS011;42438;53.174;6.730;2023-05-21T14:08:37;17.23;;;9.82;;
56541;SDS011;42438;53.174;6.730;2023-05-21T14:11:07;17.52;;;11.50;;
56541;SDS011;42438;53.174;6.730;2023-05-21T14:13:38;20.10;;;10.60;;
56541;SDS011;42438;53.174;6.730;2023-05-21T14:16:09;17.70;;;10.63;;
56541;SDS011;42438;53.174;6.730;2023-05-21T14:18:39;19.63;;;11.07;;
56541;SDS011;42438;53.174;6.730;2023-05-21T14:21:10;19.98;;;12.60;;
56541;SDS011;42438;53.174;6.730;2023-05-21T14:23:41;19.15;;;12.38;;
56541;SDS011;42438;53.174;6.730;2023-05-21T14:26:11;17.98;;;11.85;;
56541;SDS011;42438;53.174;6.730;2023-05-21T14:28:43;22.88;;;13.30;;
56541;SDS011;42438;53.174;6.730;2023-05-21T14:31:14;21.27;;;12.82;;
56541;SDS011;42438;53.174;6.730;2023-05-21T14:33:44;17.23;;;12.00;;
56541;SDS011;42438;53.174;6.730;2023-05-21T14:36:15;18.63;;;12.60;;
56541;SDS011;42438;53.174;6.730;2023-05-21T14:38:46;20.25;;;13.50;;
56541;SDS011;42438;53.174;6.730;2023-05-21T14:41:17;20.92;;;12.80;;
56541;SDS011;42438;53.174;6.730;2023-05-21T14:43:47;19.92;;;13.25;;
56541;SDS011;42438;53.174;6.730;2023-05-21T14:46:18;21.33;;;13.73;;
56541;SDS011;42438;53.174;6.730;2023-05-21T14:48:49;20.02;;;13.27;;
56541;SDS011;42438;53.174;6.730;2023-05-21T14:51:19;18.33;;;13.05;;
56541;SDS011;42438;53.174;6.730;2023-05-21T14:53:51;22.40;;;13.77;;
56541;SDS011;42438;53.174;6.730;2023-05-21T14:56:22;20.45;;;12.48;;
56541;SDS011;42438;53.174;6.730;2023-05-21T14:58:55;20.70;;;13.00;;
56541;SDS011;42438;53.174;6.730;2023-05-21T15:01:26;21.65;;;13.27;;
56541;SDS011;42438;53.174;6.730;2023-05-21T15:03:57;19.80;;;13.35;;
56541;SDS011;42438;53.174;6.730;2023-05-21T15:06:27;19.20;;;12.13;;
56541;SDS011;42438;53.174;6.730;2023-05-21T15:08:58;19.65;;;12.73;;
56541;SDS011;42438;53.174;6.730;2023-05-21T15:11:29;16.83;;;11.25;;
56541;SDS011;42438;53.174;6.730;2023-05-21T15:13:59;18.23;;;12.93;;
56541;SDS011;42438;53.174;6.730;2023-05-21T15:16:30;20.40;;;11.82;;
56541;SDS011;42438;53.174;6.730;2023-05-21T15:19:01;19.48;;;12.60;;
56541;SDS011;42438;53.174;6.730;2023-05-21T15:21:32;24.35;;;13.32;;
56541;SDS011;42438;53.174;6.730;2023-05-21T15:24:03;17.85;;;13.02;;
56541;SDS011;42438;53.174;6.730;2023-05-21T15:26:34;21.15;;;14.23;;
56541;SDS011;42438;53.174;6.730;2023-05-21T15:29:05;18.85;;;12.95;;
56541;SDS011;42438;53.174;6.730;2023-05-21T15:31:35;22.42;;;12.35;;
56541;SDS011;42438;53.174;6.730;2023-05-21T15:34:08;19.35;;;12.27;;
56541;SDS011;42438;53.174;6.730;2023-05-21T15:36:39;18.98;;;12.57;;
56541;SDS011;42438;53.174;6.730;2023-05-21T15:39:09;20.45;;;12.95;;
56541;SDS011;42438;53.174;6.730;2023-05-21T15:41:40;18.35;;;12.85;;
56541;SDS011;42438;53.174;6.730;2023-05-21T15:44:11;20.45;;;12.95;;
56541;SDS011;42438;53.174;6.730;2023-05-21T15:46:41;20.63;;;12.68;;
56541;SDS011;42438;53.174;6.730;2023-05-21T15:49:12;20.08;;;12.13;;